KAGC/AGC METAR and TAF weather

Enter ICAO airport designator
Station Type Date Time Source
KAGC METAR 2021/05/13 17:53 UTC NOAA

KAGC 131753Z VRB04KT 10SM SCT080 BKN090 16/M01 A3030 RMK AO2 SLP268 T01611011 10183 20078 58015


Station Type Date Time Source
KAGC Decoded METAR 2021/05/13 17:53 UTC NOAA

PITTSBURGH ALLEGHENY CTY., PA, United States (KAGC) 40-21N 079-55W 389M
May 13, 2021 - 01:53 PM EDT / 2021.05.13 1753 UTC
Wind: Variable at 5 MPH (4 KT):0
Visibility: 10 mile(s):0
Sky conditions: mostly cloudy
Temperature: 61.0 F (16.1 C)
Dew Point: 30.0 F (-1.1 C)
Relative Humidity: 30%
Pressure (altimeter): 30.3 in. Hg (1026 hPa)
Pressure tendency: 0.04 inches (1.5 hPa) lower than three hours ago
ob: KAGC 131753Z VRB04KT 10SM SCT080 BKN090 16/M01 A3030 RMK AO2 SLP268 T01611011 10183 20078 58015
cycle: 18

Station Type Date Time Source
KAGC TAF 2021/05/13 18:22 UTC NOAA

TAF KAGC 131720Z 1318/1418 34006KT P6SM SCT060
FM140000 36003KT P6SM SKC

Example: see airport list